sensor_id;sensor_type;location;lat;lon;timestamp;pressure;altitude;pressure_sealevel;temperature;humidity
59825;BME280;45703;50.898;6.054;2023-04-01T00:00:47;97995.28;;;9.79;100.00
59825;BME280;45703;50.898;6.054;2023-04-01T00:03:13;97998.47;;;9.81;100.00
59825;BME280;45703;50.898;6.054;2023-04-01T00:05:39;97996.63;;;9.77;100.00
59825;BME280;45703;50.898;6.054;2023-04-01T00:08:04;97989.16;;;9.79;100.00
59825;BME280;45703;50.898;6.054;2023-04-01T00:10:30;97992.38;;;9.76;100.00
59825;BME280;45703;50.898;6.054;2023-04-01T00:12:55;98000.09;;;9.72;100.00
59825;BME280;45703;50.898;6.054;2023-04-01T00:15:21;97997.44;;;9.72;100.00
59825;BME280;45703;50.898;6.054;2023-04-01T00:17:46;97991.31;;;9.72;100.00
59825;BME280;45703;50.898;6.054;2023-04-01T00:20:12;97995.28;;;9.74;100.00
59825;BME280;45703;50.898;6.054;2023-04-01T00:22:37;97986.78;;;9.67;100.00
59825;BME280;45703;50.898;6.054;2023-04-01T00:25:04;97999.56;;;9.70;100.00
59825;BME280;45703;50.898;6.054;2023-04-01T00:27:29;97975.31;;;9.67;100.00
59825;BME280;45703;50.898;6.054;2023-04-01T00:29:55;98005.97;;;9.69;100.00
59825;BME280;45703;50.898;6.054;2023-04-01T00:32:21;98003.03;;;9.71;100.00
59825;BME280;45703;50.898;6.054;2023-04-01T00:34:50;97975.63;;;9.60;100.00
59825;BME280;45703;50.898;6.054;2023-04-01T00:37:17;98003.31;;;9.64;100.00
59825;BME280;45703;50.898;6.054;2023-04-01T00:39:42;97986.50;;;9.69;100.00
59825;BME280;45703;50.898;6.054;2023-04-01T00:42:08;97997.97;;;9.64;100.00
59825;BME280;45703;50.898;6.054;2023-04-01T00:44:34;97991.56;;;9.70;100.00
59825;BME280;45703;50.898;6.054;2023-04-01T00:47:00;97989.72;;;9.71;100.00
59825;BME280;45703;50.898;6.054;2023-04-01T00:49:29;97993.16;;;9.71;100.00
59825;BME280;45703;50.898;6.054;2023-04-01T00:51:57;97978.78;;;9.67;100.00
59825;BME280;45703;50.898;6.054;2023-04-01T00:54:25;97976.63;;;9.74;100.00
59825;BME280;45703;50.898;6.054;2023-04-01T00:56:59;98000.09;;;9.72;100.00
59825;BME280;45703;50.898;6.054;2023-04-01T00:59:28;97993.19;;;9.66;100.00
59825;BME280;45703;50.898;6.054;2023-04-01T01:01:55;97990.50;;;9.66;100.00
59825;BME280;45703;50.898;6.054;2023-04-01T01:04:32;97992.63;;;9.74;100.00
59825;BME280;45703;50.898;6.054;2023-04-01T01:12:45;97987.28;;;9.74;100.00
59825;BME280;45703;50.898;6.054;2023-04-01T01:18:40;97990.78;;;9.75;100.00
59825;BME280;45703;50.898;6.054;2023-04-01T01:21:50;97992.91;;;9.78;100.00
59825;BME280;45703;50.898;6.054;2023-04-01T01:27:00;97978.25;;;9.75;100.00
59825;BME280;45703;50.898;6.054;2023-04-01T01:32:41;97981.97;;;9.74;100.00
59825;BME280;45703;50.898;6.054;2023-04-01T01:35:56;97984.91;;;9.78;100.00
59825;BME280;45703;50.898;6.054;2023-04-01T01:38:05;97981.97;;;9.74;100.00
59825;BME280;45703;50.898;6.054;2023-04-01T01:40:33;97969.97;;;9.67;100.00
59825;BME280;45703;50.898;6.054;2023-04-01T01:43:04;97984.66;;;9.69;100.00
59825;BME280;45703;50.898;6.054;2023-04-01T01:45:32;97984.66;;;9.69;100.00
59825;BME280;45703;50.898;6.054;2023-04-01T01:47:59;97981.72;;;9.71;100.00
59825;BME280;45703;50.898;6.054;2023-04-01T01:50:26;97989.97;;;9.69;100.00
59825;BME280;45703;50.898;6.054;2023-04-01T01:53:01;97992.09;;;9.67;100.00
59825;BME280;45703;50.898;6.054;2023-04-01T01:55:37;97979.31;;;9.69;100.00
59825;BME280;45703;50.898;6.054;2023-04-01T02:01:05;97983.84;;;9.69;100.00
59825;BME280;45703;50.898;6.054;2023-04-01T02:03:34;97974.53;;;9.66;100.00
59825;BME280;45703;50.898;6.054;2023-04-01T02:06:04;97983.59;;;9.65;100.00
59825;BME280;45703;50.898;6.054;2023-04-01T02:08:37;97985.97;;;9.67;100.00
59825;BME280;45703;50.898;6.054;2023-04-01T02:11:10;97981.44;;;9.67;100.00
59825;BME280;45703;50.898;6.054;2023-04-01T02:13:41;97994.50;;;9.69;100.00
59825;BME280;45703;50.898;6.054;2023-04-01T02:16:15;97979.84;;;9.66;100.00
59825;BME280;45703;50.898;6.054;2023-04-01T02:18:45;97987.03;;;9.66;100.00
59825;BME280;45703;50.898;6.054;2023-04-01T02:21:14;97997.97;;;9.64;100.00
59825;BME280;45703;50.898;6.054;2023-04-01T02:23:40;97989.47;;;9.62;100.00
59825;BME280;45703;50.898;6.054;2023-04-01T02:26:08;97990.00;;;9.59;100.00
59825;BME280;45703;50.898;6.054;2023-04-01T02:28:37;97988.94;;;9.60;100.00
59825;BME280;45703;50.898;6.054;2023-04-01T02:31:03;97985.19;;;9.61;100.00
59825;BME280;45703;50.898;6.054;2023-04-01T02:33:30;97984.38;;;9.61;100.00
59825;BME280;45703;50.898;6.054;2023-04-01T02:35:56;98005.44;;;9.62;100.00
59825;BME280;45703;50.898;6.054;2023-04-01T02:38:22;98001.19;;;9.61;100.00
59825;BME280;45703;50.898;6.054;2023-04-01T02:40:52;98008.66;;;9.59;100.00
59825;BME280;45703;50.898;6.054;2023-04-01T02:43:21;98006.22;;;9.58;100.00
59825;BME280;45703;50.898;6.054;2023-04-01T02:45:47;98016.88;;;9.58;100.00
59825;BME280;45703;50.898;6.054;2023-04-01T02:48:12;98014.22;;;9.58;100.00
59825;BME280;45703;50.898;6.054;2023-04-01T02:50:39;98013.69;;;9.56;100.00
59825;BME280;45703;50.898;6.054;2023-04-01T02:53:05;98013.97;;;9.54;100.00
59825;BME280;45703;50.898;6.054;2023-04-01T02:55:32;98013.97;;;9.54;100.00
59825;BME280;45703;50.898;6.054;2023-04-01T02:57:57;98019.03;;;9.51;100.00
59825;BME280;45703;50.898;6.054;2023-04-01T03:00:24;98010.50;;;9.49;100.00
59825;BME280;45703;50.898;6.054;2023-04-01T03:02:49;98010.78;;;9.47;100.00
59825;BME280;45703;50.898;6.054;2023-04-01T03:05:15;98010.78;;;9.52;100.00
59825;BME280;45703;50.898;6.054;2023-04-01T03:07:40;98012.91;;;9.50;100.00
59825;BME280;45703;50.898;6.054;2023-04-01T03:10:07;98021.44;;;9.52;100.00
59825;BME280;45703;50.898;6.054;2023-04-01T03:12:33;98017.19;;;9.46;100.00
59825;BME280;45703;50.898;6.054;2023-04-01T03:14:58;98013.97;;;9.49;100.00
59825;BME280;45703;50.898;6.054;2023-04-01T03:17:23;98016.13;;;9.52;100.00
59825;BME280;45703;50.898;6.054;2023-04-01T03:19:49;98007.31;;;9.52;100.00
59825;BME280;45703;50.898;6.054;2023-04-01T03:22:14;98014.75;;;9.55;100.00
59825;BME280;45703;50.898;6.054;2023-04-01T03:24:40;98009.97;;;9.52;100.00
59825;BME280;45703;50.898;6.054;2023-04-01T03:27:05;98014.50;;;9.56;100.00
59825;BME280;45703;50.898;6.054;2023-04-01T03:29:31;98018.75;;;9.57;100.00
59825;BME280;45703;50.898;6.054;2023-04-01T03:31:56;98011.84;;;9.56;100.00
59825;BME280;45703;50.898;6.054;2023-04-01T03:34:23;98029.41;;;9.57;100.00
59825;BME280;45703;50.898;6.054;2023-04-01T03:36:49;98035.28;;;9.59;100.00
59825;BME280;45703;50.898;6.054;2023-04-01T03:39:16;98042.47;;;9.59;100.00
59825;BME280;45703;50.898;6.054;2023-04-01T03:41:44;98031.56;;;9.55;100.00
59825;BME280;45703;50.898;6.054;2023-04-01T03:44:10;98036.88;;;9.60;100.00
59825;BME280;45703;50.898;6.054;2023-04-01T03:46:35;98031.56;;;9.55;100.00
59825;BME280;45703;50.898;6.054;2023-04-01T03:49:02;98048.84;;;9.58;100.00
59825;BME280;45703;50.898;6.054;2023-04-01T03:51:27;98035.81;;;9.51;100.00
59825;BME280;45703;50.898;6.054;2023-04-01T03:53:53;98055.53;;;9.55;100.00
59825;BME280;45703;50.898;6.054;2023-04-01T03:56:18;98034.22;;;9.50;100.00
59825;BME280;45703;50.898;6.054;2023-04-01T03:58:44;98049.66;;;9.53;100.00
59825;BME280;45703;50.898;6.054;2023-04-01T04:01:17;98058.97;;;9.56;100.00
59825;BME280;45703;50.898;6.054;2023-04-01T04:03:43;98063.50;;;9.55;100.00
59825;BME280;45703;50.898;6.054;2023-04-01T04:06:13;98057.13;;;9.51;100.00
59825;BME280;45703;50.898;6.054;2023-04-01T04:08:39;98057.13;;;9.51;100.00
59825;BME280;45703;50.898;6.054;2023-04-01T04:11:04;98068.31;;;9.53;100.00
59825;BME280;45703;50.898;6.054;2023-04-01T04:13:30;98047.78;;;9.49;100.00
59825;BME280;45703;50.898;6.054;2023-04-01T04:15:55;98063.50;;;9.50;100.00
59825;BME280;45703;50.898;6.054;2023-04-01T04:18:21;98074.41;;;9.49;100.00
59825;BME280;45703;50.898;6.054;2023-04-01T04:20:46;98066.19;;;9.50;100.00
59825;BME280;45703;50.898;6.054;2023-04-01T04:23:15;98076.31;;;9.53;100.00
59825;BME280;45703;50.898;6.054;2023-04-01T04:25:40;98068.84;;;9.55;100.00
59825;BME280;45703;50.898;6.054;2023-04-01T04:28:06;98075.47;;;9.53;100.00
59825;BME280;45703;50.898;6.054;2023-04-01T04:30:31;98065.63;;;9.43;100.00
59825;BME280;45703;50.898;6.054;2023-04-01T04:32:59;98069.91;;;9.49;100.00
59825;BME280;45703;50.898;6.054;2023-04-01T04:35:25;98078.69;;;9.50;100.00
59825;BME280;45703;50.898;6.054;2023-04-01T04:37:50;98069.91;;;9.49;100.00
59825;BME280;45703;50.898;6.054;2023-04-01T04:40:15;98074.97;;;9.46;100.00
59825;BME280;45703;50.898;6.054;2023-04-01T04:42:41;98082.94;;;9.46;100.00
59825;BME280;45703;50.898;6.054;2023-04-01T04:45:06;98084.25;;;9.43;100.00
59825;BME280;45703;50.898;6.054;2023-04-01T04:47:32;98090.66;;;9.42;100.00
59825;BME280;45703;50.898;6.054;2023-04-01T04:49:57;98084.25;;;9.38;100.00
59825;BME280;45703;50.898;6.054;2023-04-01T04:52:22;98094.38;;;9.41;100.00
59825;BME280;45703;50.898;6.054;2023-04-01T04:54:48;98094.13;;;9.38;100.00
59825;BME280;45703;50.898;6.054;2023-04-01T04:57:14;98098.63;;;9.37;100.00
59825;BME280;45703;50.898;6.054;2023-04-01T04:59:39;98109.28;;;9.37;100.00
59825;BME280;45703;50.898;6.054;2023-04-01T05:02:04;98101.06;;;9.34;100.00
59825;BME280;45703;50.898;6.054;2023-04-01T05:04:34;98108.50;;;9.37;100.00
59825;BME280;45703;50.898;6.054;2023-04-01T05:07:00;98111.94;;;9.32;100.00
59825;BME280;45703;50.898;6.054;2023-04-01T05:09:25;98113.00;;;9.36;100.00
59825;BME280;45703;50.898;6.054;2023-04-01T05:11:51;98125.25;;;9.37;100.00
59825;BME280;45703;50.898;6.054;2023-04-01T05:14:17;98115.97;;;9.40;100.00
59825;BME280;45703;50.898;6.054;2023-04-01T05:16:42;98119.16;;;9.42;100.00
59825;BME280;45703;50.898;6.054;2023-04-01T05:19:08;98127.94;;;9.42;100.00
59825;BME280;45703;50.898;6.054;2023-04-01T05:21:33;98122.59;;;9.42;100.00
59825;BME280;45703;50.898;6.054;2023-04-01T05:23:59;98116.22;;;9.33;100.00
59825;BME280;45703;50.898;6.054;2023-04-01T05:26:24;98125.00;;;9.39;100.00
59825;BME280;45703;50.898;6.054;2023-04-01T05:28:50;98123.94;;;9.35;100.00
59825;BME280;45703;50.898;6.054;2023-04-01T05:31:15;98123.94;;;9.40;100.00
59825;BME280;45703;50.898;6.054;2023-04-01T05:33:41;98125.00;;;9.44;100.00
59825;BME280;45703;50.898;6.054;2023-04-01T05:36:11;98135.66;;;9.44;100.00
59825;BME280;45703;50.898;6.054;2023-04-01T05:38:37;98132.19;;;9.43;100.00
59825;BME280;45703;50.898;6.054;2023-04-01T05:41:03;98128.22;;;9.36;100.00
59825;BME280;45703;50.898;6.054;2023-04-01T05:43:28;98140.72;;;9.40;100.00
59825;BME280;45703;50.898;6.054;2023-04-01T05:45:55;98142.84;;;9.38;100.00
59825;BME280;45703;50.898;6.054;2023-04-01T05:48:21;98131.13;;;9.39;100.00
59825;BME280;45703;50.898;6.054;2023-04-01T05:50:46;98139.94;;;9.45;100.00
59825;BME280;45703;50.898;6.054;2023-04-01T05:53:12;98142.84;;;9.43;100.00
59825;BME280;45703;50.898;6.054;2023-04-01T05:55:37;98146.06;;;9.45;100.00
59825;BME280;45703;50.898;6.054;2023-04-01T05:58:02;98143.13;;;9.47;100.00
59825;BME280;45703;50.898;6.054;2023-04-01T06:00:30;98150.84;;;9.43;100.00
59825;BME280;45703;50.898;6.054;2023-04-01T06:02:58;98156.72;;;9.45;100.00
59825;BME280;45703;50.898;6.054;2023-04-01T06:05:27;98151.66;;;9.44;100.00
59825;BME280;45703;50.898;6.054;2023-04-01T06:07:58;98157.78;;;9.44;100.00
59825;BME280;45703;50.898;6.054;2023-04-01T06:11:16;98160.69;;;9.48;100.00
59825;BME280;45703;50.898;6.054;2023-04-01T06:13:49;98163.66;;;9.51;100.00
59825;BME280;45703;50.898;6.054;2023-04-01T06:18:56;98170.59;;;9.52;100.00
59825;BME280;45703;50.898;6.054;2023-04-01T06:33:05;98182.00;;;9.43;100.00
59825;BME280;45703;50.898;6.054;2023-04-01T06:36:06;98194.25;;;9.44;100.00
59825;BME280;45703;50.898;6.054;2023-04-01T06:38:58;98193.72;;;9.47;100.00
59825;BME280;45703;50.898;6.054;2023-04-01T06:46:59;98188.94;;;9.44;100.00
59825;BME280;45703;50.898;6.054;2023-04-01T06:49:41;98194.53;;;9.47;100.00
59825;BME280;45703;50.898;6.054;2023-04-01T06:52:35;98197.44;;;9.46;100.00
59825;BME280;45703;50.898;6.054;2023-04-01T06:55:27;98192.94;;;9.46;100.00
59825;BME280;45703;50.898;6.054;2023-04-01T06:57:56;98199.88;;;9.47;100.00
59825;BME280;45703;50.898;6.054;2023-04-01T07:02:54;98194.53;;;9.47;100.00
59825;BME280;45703;50.898;6.054;2023-04-01T07:05:24;98215.56;;;9.54;100.00
59825;BME280;45703;50.898;6.054;2023-04-01T07:07:54;98213.97;;;9.53;100.00
59825;BME280;45703;50.898;6.054;2023-04-01T07:10:34;98214.25;;;9.56;100.00
59825;BME280;45703;50.898;6.054;2023-04-01T07:13:04;98223.84;;;9.57;100.00
59825;BME280;45703;50.898;6.054;2023-04-01T07:15:38;98227.31;;;9.58;100.00
59825;BME280;45703;50.898;6.054;2023-04-01T07:18:12;98228.13;;;9.58;100.00
59825;BME280;45703;50.898;6.054;2023-04-01T07:20:39;98231.84;;;9.57;100.00
59825;BME280;45703;50.898;6.054;2023-04-01T07:23:46;98234.22;;;9.59;100.00
59825;BME280;45703;50.898;6.054;2023-04-01T07:26:20;98240.38;;;9.59;100.00
59825;BME280;45703;50.898;6.054;2023-04-01T07:28:46;98235.56;;;9.56;100.00
59825;BME280;45703;50.898;6.054;2023-04-01T07:31:41;98245.94;;;9.48;100.00
59825;BME280;45703;50.898;6.054;2023-04-01T07:34:15;98247.53;;;9.49;100.00
59825;BME280;45703;50.898;6.054;2023-04-01T07:45:35;98264.88;;;9.56;100.00
59825;BME280;45703;50.898;6.054;2023-04-01T07:50:26;98278.72;;;9.53;100.00
59825;BME280;45703;50.898;6.054;2023-04-01T07:57:57;98289.34;;;9.48;100.00
59825;BME280;45703;50.898;6.054;2023-04-01T08:00:33;98284.03;;;9.48;100.00
59825;BME280;45703;50.898;6.054;2023-04-01T08:03:12;98298.66;;;9.51;100.00
59825;BME280;45703;50.898;6.054;2023-04-01T08:11:46;98305.91;;;9.60;100.00
59825;BME280;45703;50.898;6.054;2023-04-01T08:22:42;98315.22;;;9.63;100.00
59825;BME280;45703;50.898;6.054;2023-04-01T08:25:13;98320.53;;;9.63;100.00
59825;BME280;45703;50.898;6.054;2023-04-01T08:27:47;98321.34;;;9.63;100.00
59825;BME280;45703;50.898;6.054;2023-04-01T08:38:15;98341.59;;;9.64;100.00
59825;BME280;45703;50.898;6.054;2023-04-01T08:55:47;98373.31;;;9.66;100.00
59825;BME280;45703;50.898;6.054;2023-04-01T09:04:30;98382.66;;;9.68;100.00
59825;BME280;45703;50.898;6.054;2023-04-01T09:18:24;98386.97;;;9.84;100.00
59825;BME280;45703;50.898;6.054;2023-04-01T09:21:12;98396.59;;;9.90;100.00
59825;BME280;45703;50.898;6.054;2023-04-01T09:37:50;98409.72;;;10.02;100.00
59825;BME280;45703;50.898;6.054;2023-04-01T09:40:18;98407.31;;;10.00;100.00
59825;BME280;45703;50.898;6.054;2023-04-01T09:56:24;98428.69;;;10.10;100.00
59825;BME280;45703;50.898;6.054;2023-04-01T10:02:25;98438.31;;;10.16;100.00
59825;BME280;45703;50.898;6.054;2023-04-01T10:24:41;98456.56;;;10.49;100.00
59825;BME280;45703;50.898;6.054;2023-04-01T10:33:01;98449.31;;;10.34;100.00
59825;BME280;45703;50.898;6.054;2023-04-01T11:07:22;98492.47;;;10.26;100.00
59825;BME280;45703;50.898;6.054;2023-04-01T11:19:09;98504.75;;;10.27;100.00
59825;BME280;45703;50.898;6.054;2023-04-01T11:35:12;98510.88;;;10.33;100.00
59825;BME280;45703;50.898;6.054;2023-04-01T11:38:14;98506.09;;;10.35;100.00
59825;BME280;45703;50.898;6.054;2023-04-01T11:40:57;98517.31;;;10.42;100.00
59825;BME280;45703;50.898;6.054;2023-04-01T11:54:51;98534.97;;;10.48;100.00
59825;BME280;45703;50.898;6.054;2023-04-01T12:08:20;98546.53;;;10.73;100.00
59825;BME280;45703;50.898;6.054;2023-04-01T12:10:58;98541.44;;;10.77;100.00
59825;BME280;45703;50.898;6.054;2023-04-01T12:13:45;98552.94;;;10.77;100.00
59825;BME280;45703;50.898;6.054;2023-04-01T12:18:57;98546.53;;;10.73;100.00
59825;BME280;45703;50.898;6.054;2023-04-01T12:32:31;98561.75;;;10.88;100.00
59825;BME280;45703;50.898;6.054;2023-04-01T12:45:33;98579.09;;;10.80;100.00
59825;BME280;45703;50.898;6.054;2023-04-01T13:09:22;98605.53;;;10.87;100.00
59825;BME280;45703;50.898;6.054;2023-04-01T13:12:02;98602.31;;;10.80;100.00
59825;BME280;45703;50.898;6.054;2023-04-01T13:17:52;98601.03;;;10.87;100.00
59825;BME280;45703;50.898;6.054;2023-04-01T13:20:33;98613.00;;;10.85;100.00
59825;BME280;45703;50.898;6.054;2023-04-01T13:23:32;98622.06;;;10.84;100.00
59825;BME280;45703;50.898;6.054;2023-04-01T13:26:13;98615.69;;;10.85;100.00
59825;BME280;45703;50.898;6.054;2023-04-01T13:37:15;98623.97;;;10.88;100.00
59825;BME280;45703;50.898;6.054;2023-04-01T13:42:48;98625.28;;;10.81;100.00
59825;BME280;45703;50.898;6.054;2023-04-01T13:45:29;98632.22;;;10.82;100.00
59825;BME280;45703;50.898;6.054;2023-04-01T13:51:15;98641.56;;;10.79;100.00
59825;BME280;45703;50.898;6.054;2023-04-01T13:53:58;98647.97;;;10.83;100.00
59825;BME280;45703;50.898;6.054;2023-04-01T13:56:42;98644.78;;;10.81;100.00
59825;BME280;45703;50.898;6.054;2023-04-01T14:16:21;98660.28;;;10.89;100.00
59825;BME280;45703;50.898;6.054;2023-04-01T14:22:03;98660.50;;;10.83;100.00
59825;BME280;45703;50.898;6.054;2023-04-01T14:27:28;98676.00;;;10.86;100.00
59825;BME280;45703;50.898;6.054;2023-04-01T14:32:54;98679.19;;;10.78;100.00
59825;BME280;45703;50.898;6.054;2023-04-01T14:35:37;98679.69;;;10.75;100.00
59825;BME280;45703;50.898;6.054;2023-04-01T14:44:12;98690.34;;;10.70;100.00
59825;BME280;45703;50.898;6.054;2023-04-01T14:47:09;98698.59;;;10.68;100.00
59825;BME280;45703;50.898;6.054;2023-04-01T14:49:43;98695.16;;;10.68;100.00
59825;BME280;45703;50.898;6.054;2023-04-01T14:52:25;98694.09;;;10.69;100.00
59825;BME280;45703;50.898;6.054;2023-04-01T14:54:52;98692.53;;;10.78;100.00
59825;BME280;45703;50.898;6.054;2023-04-01T14:57:25;98704.03;;;10.83;100.00
59825;BME280;45703;50.898;6.054;2023-04-01T15:13:12;98722.47;;;10.90;100.00
59825;BME280;45703;50.898;6.054;2023-04-01T15:27:29;98732.47;;;10.63;100.00
59825;BME280;45703;50.898;6.054;2023-04-01T15:30:28;98739.13;;;10.60;100.00
59825;BME280;45703;50.898;6.054;2023-04-01T15:33:14;98731.91;;;10.56;100.00
59825;BME280;45703;50.898;6.054;2023-04-01T15:35:57;98742.06;;;10.59;100.00
59825;BME280;45703;50.898;6.054;2023-04-01T15:43:50;98739.34;;;10.49;100.00
59825;BME280;45703;50.898;6.054;2023-04-01T15:46:44;98758.50;;;10.46;100.00
59825;BME280;45703;50.898;6.054;2023-04-01T16:00:28;98770.63;;;10.27;100.00
59825;BME280;45703;50.898;6.054;2023-04-01T16:11:18;98777.50;;;10.18;100.00
59825;BME280;45703;50.898;6.054;2023-04-01T16:14:07;98776.66;;;10.17;100.00
59825;BME280;45703;50.898;6.054;2023-04-01T16:22:00;98786.22;;;10.13;100.00
59825;BME280;45703;50.898;6.054;2023-04-01T16:24:35;98792.38;;;10.14;100.00
59825;BME280;45703;50.898;6.054;2023-04-01T16:27:37;98808.38;;;10.14;100.00
59825;BME280;45703;50.898;6.054;2023-04-01T16:33:34;98807.28;;;10.10;100.00
59825;BME280;45703;50.898;6.054;2023-04-01T16:36:32;98801.94;;;10.10;100.00
59825;BME280;45703;50.898;6.054;2023-04-01T16:42:14;98805.41;;;10.10;100.00
59825;BME280;45703;50.898;6.054;2023-04-01T16:45:06;98814.22;;;10.11;100.00
59825;BME280;45703;50.898;6.054;2023-04-01T16:47:47;98817.91;;;10.05;100.00
59825;BME280;45703;50.898;6.054;2023-04-01T16:53:18;98815.22;;;10.05;100.00
59825;BME280;45703;50.898;6.054;2023-04-01T16:55:56;98833.41;;;10.08;100.00
59825;BME280;45703;50.898;6.054;2023-04-01T17:01:09;98842.94;;;10.04;100.00
59825;BME280;45703;50.898;6.054;2023-04-01T17:03:45;98840.22;;;9.99;100.00
59825;BME280;45703;50.898;6.054;2023-04-01T17:08:55;98842.78;;;9.94;100.00
59825;BME280;45703;50.898;6.054;2023-04-01T17:11:39;98845.97;;;9.91;100.00
59825;BME280;45703;50.898;6.054;2023-04-01T17:19:40;98853.78;;;9.76;100.00
59825;BME280;45703;50.898;6.054;2023-04-01T17:22:33;98862.59;;;9.77;100.00
59825;BME280;45703;50.898;6.054;2023-04-01T17:25:20;98871.09;;;9.74;100.00
59825;BME280;45703;50.898;6.054;2023-04-01T17:27:59;98874.81;;;9.73;100.00
59825;BME280;45703;50.898;6.054;2023-04-01T17:30:35;98878.84;;;9.75;100.00
59825;BME280;45703;50.898;6.054;2023-04-01T17:33:13;98884.97;;;9.76;100.00
59825;BME280;45703;50.898;6.054;2023-04-01T17:55:48;98919.03;;;9.52;100.00
59825;BME280;45703;50.898;6.054;2023-04-01T18:13:55;98933.59;;;9.28;100.00
59825;BME280;45703;50.898;6.054;2023-04-01T18:19:46;98942.09;;;9.25;100.00
59825;BME280;45703;50.898;6.054;2023-04-01T18:25:18;98946.28;;;9.21;100.00
59825;BME280;45703;50.898;6.054;2023-04-01T18:39:04;98960.09;;;9.18;100.00
59825;BME280;45703;50.898;6.054;2023-04-01T18:41:59;98965.97;;;9.20;100.00
59825;BME280;45703;50.898;6.054;2023-04-01T18:44:36;98974.53;;;9.22;100.00
59825;BME280;45703;50.898;6.054;2023-04-01T18:47:24;98974.53;;;9.22;100.00
59825;BME280;45703;50.898;6.054;2023-04-01T18:49:59;98981.94;;;9.20;100.00
59825;BME280;45703;50.898;6.054;2023-04-01T18:52:33;98981.94;;;9.20;100.00
59825;BME280;45703;50.898;6.054;2023-04-01T19:00:28;98986.22;;;9.21;100.00
59825;BME280;45703;50.898;6.054;2023-04-01T19:03:21;98985.66;;;9.19;100.00
59825;BME280;45703;50.898;6.054;2023-04-01T19:05:52;98986.47;;;9.20;100.00
59825;BME280;45703;50.898;6.054;2023-04-01T19:08:28;98982.91;;;9.14;100.00
59825;BME280;45703;50.898;6.054;2023-04-01T19:11:18;98964.34;;;9.03;100.00
59825;BME280;45703;50.898;6.054;2023-04-01T19:14:30;99002.59;;;9.13;100.00
59825;BME280;45703;50.898;6.054;2023-04-01T19:19:58;99006.31;;;9.12;100.00
59825;BME280;45703;50.898;6.054;2023-04-01T19:25:54;99007.09;;;9.13;100.00
59825;BME280;45703;50.898;6.054;2023-04-01T19:28:50;99022.84;;;9.14;100.00
59825;BME280;45703;50.898;6.054;2023-04-01T19:31:34;99018.00;;;9.11;100.00
59825;BME280;45703;50.898;6.054;2023-04-01T19:42:51;99016.31;;;9.05;100.00
59825;BME280;45703;50.898;6.054;2023-04-01T19:45:40;99024.31;;;9.05;100.00
59825;BME280;45703;50.898;6.054;2023-04-01T19:56:19;99034.31;;;8.98;100.00
59825;BME280;45703;50.898;6.054;2023-04-01T19:59:12;99034.88;;;9.00;100.00
59825;BME280;45703;50.898;6.054;2023-04-01T20:04:27;99045.13;;;9.08;100.00
59825;BME280;45703;50.898;6.054;2023-04-01T20:07:07;99049.41;;;9.09;100.00
59825;BME280;45703;50.898;6.054;2023-04-01T20:09:53;99041.63;;;9.08;100.00
59825;BME280;45703;50.898;6.054;2023-04-01T20:15:40;99053.00;;;9.03;100.00
59825;BME280;45703;50.898;6.054;2023-04-01T20:18:23;99058.81;;;9.00;100.00
59825;BME280;45703;50.898;6.054;2023-04-01T20:26:12;99068.91;;;8.98;100.00
59825;BME280;45703;50.898;6.054;2023-04-01T20:37:35;99080.34;;;8.99;100.00
59825;BME280;45703;50.898;6.054;2023-04-01T20:40:27;99086.41;;;8.94;100.00
59825;BME280;45703;50.898;6.054;2023-04-01T20:43:14;99084.88;;;8.98;100.00
59825;BME280;45703;50.898;6.054;2023-04-01T20:51:04;99096.00;;;8.95;100.00
59825;BME280;45703;50.898;6.054;2023-04-01T20:59:25;99111.09;;;9.06;100.00
59825;BME280;45703;50.898;6.054;2023-04-01T21:02:15;99118.59;;;9.09;100.00
59825;BME280;45703;50.898;6.054;2023-04-01T21:16:39;99131.72;;;9.27;100.00
59825;BME280;45703;50.898;6.054;2023-04-01T21:19:02;99139.47;;;9.29;100.00
59825;BME280;45703;50.898;6.054;2023-04-01T21:24:48;99148.16;;;9.24;100.00
59825;BME280;45703;50.898;6.054;2023-04-01T21:35:43;99170.03;;;9.26;100.00
59825;BME280;45703;50.898;6.054;2023-04-01T21:38:27;99179.63;;;9.27;100.00
59825;BME280;45703;50.898;6.054;2023-04-01T21:44:11;99192.06;;;9.22;100.00
59825;BME280;45703;50.898;6.054;2023-04-01T22:00:51;99214.44;;;9.09;100.00
59825;BME280;45703;50.898;6.054;2023-04-01T22:14:35;99234.16;;;8.97;100.00
59825;BME280;45703;50.898;6.054;2023-04-01T22:17:02;99238.78;;;8.90;100.00
59825;BME280;45703;50.898;6.054;2023-04-01T22:22:38;99242.63;;;8.82;100.00
59825;BME280;45703;50.898;6.054;2023-04-01T22:25:12;99254.88;;;8.83;100.00
59825;BME280;45703;50.898;6.054;2023-04-01T22:28:04;99251.53;;;8.76;100.00
59825;BME280;45703;50.898;6.054;2023-04-01T22:31:01;99258.47;;;8.77;100.00
59825;BME280;45703;50.898;6.054;2023-04-01T22:42:06;99272.38;;;8.68;100.00
59825;BME280;45703;50.898;6.054;2023-04-01T22:52:44;99299.31;;;8.60;100.00
59825;BME280;45703;50.898;6.054;2023-04-01T22:55:32;99306.81;;;8.63;100.00
59825;BME280;45703;50.898;6.054;2023-04-01T22:58:03;99307.53;;;8.58;100.00
59825;BME280;45703;50.898;6.054;2023-04-01T23:00:45;99308.47;;;8.53;100.00
59825;BME280;45703;50.898;6.054;2023-04-01T23:03:28;99320.72;;;8.54;100.00
59825;BME280;45703;50.898;6.054;2023-04-01T23:05:59;99305.78;;;8.41;100.00
59825;BME280;45703;50.898;6.054;2023-04-01T23:11:02;99340.47;;;8.46;100.00
59825;BME280;45703;50.898;6.054;2023-04-01T23:13:30;99345.47;;;8.43;100.00
59825;BME280;45703;50.898;6.054;2023-04-01T23:15:57;99348.09;;;8.31;100.00
59825;BME280;45703;50.898;6.054;2023-04-01T23:23:33;99371.91;;;8.26;100.00
59825;BME280;45703;50.898;6.054;2023-04-01T23:26:20;99364.13;;;8.25;100.00
59825;BME280;45703;50.898;6.054;2023-04-01T23:28:55;99365.88;;;8.19;100.00
59825;BME280;45703;50.898;6.054;2023-04-01T23:31:25;99371.97;;;8.20;100.00
59825;BME280;45703;50.898;6.054;2023-04-01T23:33:59;99380.59;;;8.15;100.00
59825;BME280;45703;50.898;6.054;2023-04-01T23:36:26;99375.72;;;8.12;100.00